sensor_id;sensor_type;location;lat;lon;timestamp;temperature;humidity
9450;DHT22;4763;48.370;10.874;2022-09-28T00:01:41;8.70;99.90
9450;DHT22;4763;48.370;10.874;2022-09-28T00:04:08;8.70;99.90
9450;DHT22;4763;48.370;10.874;2022-09-28T00:06:35;8.70;99.90
9450;DHT22;4763;48.370;10.874;2022-09-28T00:09:03;8.70;99.90
9450;DHT22;4763;48.370;10.874;2022-09-28T00:11:31;8.70;99.90
9450;DHT22;4763;48.370;10.874;2022-09-28T00:13:59;8.80;99.90
9450;DHT22;4763;48.370;10.874;2022-09-28T00:16:30;8.80;99.90
9450;DHT22;4763;48.370;10.874;2022-09-28T00:18:58;8.80;99.90
9450;DHT22;4763;48.370;10.874;2022-09-28T00:21:26;8.90;99.90
9450;DHT22;4763;48.370;10.874;2022-09-28T00:23:54;8.90;99.90
9450;DHT22;4763;48.370;10.874;2022-09-28T00:26:43;8.90;99.90
9450;DHT22;4763;48.370;10.874;2022-09-28T00:29:17;9.00;99.90
9450;DHT22;4763;48.370;10.874;2022-09-28T00:31:44;9.00;99.90
9450;DHT22;4763;48.370;10.874;2022-09-28T00:34:11;9.00;99.90
9450;DHT22;4763;48.370;10.874;2022-09-28T00:36:41;9.00;99.90
9450;DHT22;4763;48.370;10.874;2022-09-28T00:39:08;9.00;99.90
9450;DHT22;4763;48.370;10.874;2022-09-28T00:41:36;9.00;99.90
9450;DHT22;4763;48.370;10.874;2022-09-28T00:47:15;9.00;99.90
9450;DHT22;4763;48.370;10.874;2022-09-28T00:49:44;9.00;99.90
9450;DHT22;4763;48.370;10.874;2022-09-28T00:52:16;9.10;99.90
9450;DHT22;4763;48.370;10.874;2022-09-28T00:54:46;9.10;99.90
9450;DHT22;4763;48.370;10.874;2022-09-28T00:57:13;9.10;99.90
9450;DHT22;4763;48.370;10.874;2022-09-28T00:59:42;9.10;99.90
9450;DHT22;4763;48.370;10.874;2022-09-28T01:02:10;9.20;99.90
9450;DHT22;4763;48.370;10.874;2022-09-28T01:04:37;9.10;99.90
9450;DHT22;4763;48.370;10.874;2022-09-28T01:07:06;9.10;99.90
9450;DHT22;4763;48.370;10.874;2022-09-28T01:09:36;9.10;99.90
9450;DHT22;4763;48.370;10.874;2022-09-28T01:12:04;9.20;99.90
9450;DHT22;4763;48.370;10.874;2022-09-28T01:14:31;9.20;99.90
9450;DHT22;4763;48.370;10.874;2022-09-28T01:17:05;9.20;99.90
9450;DHT22;4763;48.370;10.874;2022-09-28T01:20:09;9.10;99.90
9450;DHT22;4763;48.370;10.874;2022-09-28T01:25:54;9.20;99.90
9450;DHT22;4763;48.370;10.874;2022-09-28T01:28:33;9.20;99.90
9450;DHT22;4763;48.370;10.874;2022-09-28T01:31:05;9.20;99.90
9450;DHT22;4763;48.370;10.874;2022-09-28T01:33:37;9.20;99.90
9450;DHT22;4763;48.370;10.874;2022-09-28T01:36:08;9.10;99.90
9450;DHT22;4763;48.370;10.874;2022-09-28T01:38:52;9.20;99.90
9450;DHT22;4763;48.370;10.874;2022-09-28T01:41:28;9.20;99.90
9450;DHT22;4763;48.370;10.874;2022-09-28T01:44:02;9.20;99.90
9450;DHT22;4763;48.370;10.874;2022-09-28T01:46:37;9.20;99.90
9450;DHT22;4763;48.370;10.874;2022-09-28T01:49:09;9.20;99.90
9450;DHT22;4763;48.370;10.874;2022-09-28T01:51:50;9.20;99.90
9450;DHT22;4763;48.370;10.874;2022-09-28T01:54:21;9.10;99.90
9450;DHT22;4763;48.370;10.874;2022-09-28T01:56:51;9.10;99.90
9450;DHT22;4763;48.370;10.874;2022-09-28T01:59:23;9.10;99.90
9450;DHT22;4763;48.370;10.874;2022-09-28T02:01:54;9.20;99.90
9450;DHT22;4763;48.370;10.874;2022-09-28T02:04:27;9.00;99.90
9450;DHT22;4763;48.370;10.874;2022-09-28T02:07:04;9.00;99.90
9450;DHT22;4763;48.370;10.874;2022-09-28T02:09:34;9.00;99.90
9450;DHT22;4763;48.370;10.874;2022-09-28T02:12:08;9.00;99.90
9450;DHT22;4763;48.370;10.874;2022-09-28T02:14:38;8.90;99.90
9450;DHT22;4763;48.370;10.874;2022-09-28T02:17:06;9.00;99.90
9450;DHT22;4763;48.370;10.874;2022-09-28T02:19:38;8.90;99.90
9450;DHT22;4763;48.370;10.874;2022-09-28T02:22:18;8.90;99.90
9450;DHT22;4763;48.370;10.874;2022-09-28T02:24:53;9.00;99.90
9450;DHT22;4763;48.370;10.874;2022-09-28T02:27:31;8.90;99.90
9450;DHT22;4763;48.370;10.874;2022-09-28T02:30:07;8.90;99.90
9450;DHT22;4763;48.370;10.874;2022-09-28T02:32:39;8.90;99.90
9450;DHT22;4763;48.370;10.874;2022-09-28T02:35:10;9.00;99.90
9450;DHT22;4763;48.370;10.874;2022-09-28T02:37:40;9.00;99.90
9450;DHT22;4763;48.370;10.874;2022-09-28T02:40:12;8.90;99.90
9450;DHT22;4763;48.370;10.874;2022-09-28T02:42:47;8.90;99.90
9450;DHT22;4763;48.370;10.874;2022-09-28T02:45:29;9.00;99.90
9450;DHT22;4763;48.370;10.874;2022-09-28T02:48:07;9.00;99.90
9450;DHT22;4763;48.370;10.874;2022-09-28T02:50:42;8.90;99.90
9450;DHT22;4763;48.370;10.874;2022-09-28T02:53:45;8.80;99.90
9450;DHT22;4763;48.370;10.874;2022-09-28T02:56:28;8.90;99.90
9450;DHT22;4763;48.370;10.874;2022-09-28T02:59:06;8.90;99.90
9450;DHT22;4763;48.370;10.874;2022-09-28T03:01:48;8.90;99.90
9450;DHT22;4763;48.370;10.874;2022-09-28T03:04:23;9.10;99.90
9450;DHT22;4763;48.370;10.874;2022-09-28T03:06:56;9.10;99.90
9450;DHT22;4763;48.370;10.874;2022-09-28T03:09:34;9.20;99.90
9450;DHT22;4763;48.370;10.874;2022-09-28T03:12:05;9.10;99.90
9450;DHT22;4763;48.370;10.874;2022-09-28T03:14:33;9.10;99.90
9450;DHT22;4763;48.370;10.874;2022-09-28T03:17:01;9.20;99.90
9450;DHT22;4763;48.370;10.874;2022-09-28T03:19:31;9.20;99.90
9450;DHT22;4763;48.370;10.874;2022-09-28T03:21:58;9.30;99.90
9450;DHT22;4763;48.370;10.874;2022-09-28T03:24:26;9.30;99.90
9450;DHT22;4763;48.370;10.874;2022-09-28T03:26:53;9.30;99.90
9450;DHT22;4763;48.370;10.874;2022-09-28T03:29:20;9.30;99.90
9450;DHT22;4763;48.370;10.874;2022-09-28T03:31:47;9.30;99.90
9450;DHT22;4763;48.370;10.874;2022-09-28T03:34:18;9.30;99.90
9450;DHT22;4763;48.370;10.874;2022-09-28T03:36:45;9.20;99.90
9450;DHT22;4763;48.370;10.874;2022-09-28T03:39:11;9.30;99.90
9450;DHT22;4763;48.370;10.874;2022-09-28T03:41:38;9.30;99.90
9450;DHT22;4763;48.370;10.874;2022-09-28T03:44:05;9.30;99.90
9450;DHT22;4763;48.370;10.874;2022-09-28T03:46:32;9.30;99.90
9450;DHT22;4763;48.370;10.874;2022-09-28T03:48:59;9.40;99.90
9450;DHT22;4763;48.370;10.874;2022-09-28T03:51:27;9.30;99.90
9450;DHT22;4763;48.370;10.874;2022-09-28T03:53:54;9.30;99.90
9450;DHT22;4763;48.370;10.874;2022-09-28T03:56:21;9.30;99.90
9450;DHT22;4763;48.370;10.874;2022-09-28T03:58:48;9.30;99.90
9450;DHT22;4763;48.370;10.874;2022-09-28T04:01:15;9.40;99.90
9450;DHT22;4763;48.370;10.874;2022-09-28T04:03:42;9.30;99.90
9450;DHT22;4763;48.370;10.874;2022-09-28T04:06:10;9.30;99.90
9450;DHT22;4763;48.370;10.874;2022-09-28T04:08:38;9.30;99.90
9450;DHT22;4763;48.370;10.874;2022-09-28T04:11:05;9.20;99.90
9450;DHT22;4763;48.370;10.874;2022-09-28T04:13:32;9.20;99.90
9450;DHT22;4763;48.370;10.874;2022-09-28T04:16:00;9.20;99.90
9450;DHT22;4763;48.370;10.874;2022-09-28T04:18:27;9.20;99.90
9450;DHT22;4763;48.370;10.874;2022-09-28T04:20:59;9.10;99.90
9450;DHT22;4763;48.370;10.874;2022-09-28T04:23:28;9.10;99.90
9450;DHT22;4763;48.370;10.874;2022-09-28T04:25:56;9.00;99.90
9450;DHT22;4763;48.370;10.874;2022-09-28T04:28:23;9.00;99.90
9450;DHT22;4763;48.370;10.874;2022-09-28T04:31:09;9.00;99.90
9450;DHT22;4763;48.370;10.874;2022-09-28T04:33:36;9.00;99.90
9450;DHT22;4763;48.370;10.874;2022-09-28T04:36:04;9.00;99.90
9450;DHT22;4763;48.370;10.874;2022-09-28T04:38:33;9.00;99.90
9450;DHT22;4763;48.370;10.874;2022-09-28T04:41:03;9.10;99.90
9450;DHT22;4763;48.370;10.874;2022-09-28T04:43:31;9.10;99.90
9450;DHT22;4763;48.370;10.874;2022-09-28T04:45:59;9.00;99.90
9450;DHT22;4763;48.370;10.874;2022-09-28T04:48:26;9.00;99.90
9450;DHT22;4763;48.370;10.874;2022-09-28T04:50:54;9.10;99.90
9450;DHT22;4763;48.370;10.874;2022-09-28T04:53:21;9.10;99.90
9450;DHT22;4763;48.370;10.874;2022-09-28T04:55:56;9.00;99.90
9450;DHT22;4763;48.370;10.874;2022-09-28T04:58:24;9.10;99.90
9450;DHT22;4763;48.370;10.874;2022-09-28T05:04:13;9.10;99.90
9450;DHT22;4763;48.370;10.874;2022-09-28T05:06:41;9.20;99.90
9450;DHT22;4763;48.370;10.874;2022-09-28T05:09:08;9.20;99.90
9450;DHT22;4763;48.370;10.874;2022-09-28T05:11:35;9.20;99.90
9450;DHT22;4763;48.370;10.874;2022-09-28T05:14:05;9.30;99.90
9450;DHT22;4763;48.370;10.874;2022-09-28T05:16:32;9.20;99.90
9450;DHT22;4763;48.370;10.874;2022-09-28T05:19:00;9.20;99.90
9450;DHT22;4763;48.370;10.874;2022-09-28T05:21:27;9.20;99.90
9450;DHT22;4763;48.370;10.874;2022-09-28T05:23:54;9.30;99.90
9450;DHT22;4763;48.370;10.874;2022-09-28T05:26:23;9.20;99.90
9450;DHT22;4763;48.370;10.874;2022-09-28T05:28:50;9.20;99.90
9450;DHT22;4763;48.370;10.874;2022-09-28T05:31:18;9.30;99.90
9450;DHT22;4763;48.370;10.874;2022-09-28T05:33:45;9.20;99.90
9450;DHT22;4763;48.370;10.874;2022-09-28T05:36:12;9.20;99.90
9450;DHT22;4763;48.370;10.874;2022-09-28T05:38:39;9.20;99.90
9450;DHT22;4763;48.370;10.874;2022-09-28T05:41:06;9.30;99.90
9450;DHT22;4763;48.370;10.874;2022-09-28T05:43:33;9.30;99.90
9450;DHT22;4763;48.370;10.874;2022-09-28T05:46:00;9.30;99.90
9450;DHT22;4763;48.370;10.874;2022-09-28T05:48:29;9.30;99.90
9450;DHT22;4763;48.370;10.874;2022-09-28T05:50:56;9.30;99.90
9450;DHT22;4763;48.370;10.874;2022-09-28T05:53:26;9.40;99.90
9450;DHT22;4763;48.370;10.874;2022-09-28T05:55:57;9.30;99.90
9450;DHT22;4763;48.370;10.874;2022-09-28T05:58:24;9.40;99.90
9450;DHT22;4763;48.370;10.874;2022-09-28T06:00:53;9.30;99.90
9450;DHT22;4763;48.370;10.874;2022-09-28T06:03:20;9.30;99.90
9450;DHT22;4763;48.370;10.874;2022-09-28T06:05:48;9.30;99.90
9450;DHT22;4763;48.370;10.874;2022-09-28T06:08:15;9.40;99.90
9450;DHT22;4763;48.370;10.874;2022-09-28T06:10:42;9.40;99.90
9450;DHT22;4763;48.370;10.874;2022-09-28T06:13:09;9.30;99.90
9450;DHT22;4763;48.370;10.874;2022-09-28T06:15:36;9.40;99.90
9450;DHT22;4763;48.370;10.874;2022-09-28T06:18:05;9.30;99.90
9450;DHT22;4763;48.370;10.874;2022-09-28T06:20:34;9.40;99.90
9450;DHT22;4763;48.370;10.874;2022-09-28T06:23:02;9.40;99.90
9450;DHT22;4763;48.370;10.874;2022-09-28T06:25:29;9.30;99.90
9450;DHT22;4763;48.370;10.874;2022-09-28T06:27:57;9.40;99.90
9450;DHT22;4763;48.370;10.874;2022-09-28T06:30:25;9.40;99.90
9450;DHT22;4763;48.370;10.874;2022-09-28T06:32:53;9.40;99.90
9450;DHT22;4763;48.370;10.874;2022-09-28T06:35:21;9.40;99.90
9450;DHT22;4763;48.370;10.874;2022-09-28T06:37:48;9.50;99.90
9450;DHT22;4763;48.370;10.874;2022-09-28T06:40:17;9.50;99.90
9450;DHT22;4763;48.370;10.874;2022-09-28T06:42:54;9.60;99.90
9450;DHT22;4763;48.370;10.874;2022-09-28T06:45:22;9.70;99.90
9450;DHT22;4763;48.370;10.874;2022-09-28T06:47:54;9.70;99.90
9450;DHT22;4763;48.370;10.874;2022-09-28T06:50:23;9.70;99.90
9450;DHT22;4763;48.370;10.874;2022-09-28T06:52:51;9.70;99.90
9450;DHT22;4763;48.370;10.874;2022-09-28T06:55:20;9.70;99.90
9450;DHT22;4763;48.370;10.874;2022-09-28T06:57:50;9.70;99.90
9450;DHT22;4763;48.370;10.874;2022-09-28T07:00:22;9.70;99.90
9450;DHT22;4763;48.370;10.874;2022-09-28T07:02:49;9.70;99.90
9450;DHT22;4763;48.370;10.874;2022-09-28T07:05:16;9.80;99.90
9450;DHT22;4763;48.370;10.874;2022-09-28T07:07:43;9.80;99.90
9450;DHT22;4763;48.370;10.874;2022-09-28T07:10:11;9.80;99.90
9450;DHT22;4763;48.370;10.874;2022-09-28T07:12:44;9.80;99.90
9450;DHT22;4763;48.370;10.874;2022-09-28T07:15:15;9.80;99.90
9450;DHT22;4763;48.370;10.874;2022-09-28T07:17:47;9.80;99.90
9450;DHT22;4763;48.370;10.874;2022-09-28T07:20:14;9.80;99.90
9450;DHT22;4763;48.370;10.874;2022-09-28T07:22:41;9.80;99.90
9450;DHT22;4763;48.370;10.874;2022-09-28T07:25:09;9.70;99.90
9450;DHT22;4763;48.370;10.874;2022-09-28T07:27:35;9.80;99.90
9450;DHT22;4763;48.370;10.874;2022-09-28T07:30:06;9.80;99.90
9450;DHT22;4763;48.370;10.874;2022-09-28T07:32:33;9.80;99.90
9450;DHT22;4763;48.370;10.874;2022-09-28T07:35:02;9.90;99.90
9450;DHT22;4763;48.370;10.874;2022-09-28T07:37:32;9.70;99.90
9450;DHT22;4763;48.370;10.874;2022-09-28T07:39:59;9.80;99.90
9450;DHT22;4763;48.370;10.874;2022-09-28T07:42:43;9.70;99.90
9450;DHT22;4763;48.370;10.874;2022-09-28T07:45:12;9.60;99.90
9450;DHT22;4763;48.370;10.874;2022-09-28T07:47:39;9.50;99.90
9450;DHT22;4763;48.370;10.874;2022-09-28T07:50:07;9.40;99.90
9450;DHT22;4763;48.370;10.874;2022-09-28T07:52:34;9.30;99.90
9450;DHT22;4763;48.370;10.874;2022-09-28T07:55:01;9.30;99.90
9450;DHT22;4763;48.370;10.874;2022-09-28T07:57:29;9.20;99.90
9450;DHT22;4763;48.370;10.874;2022-09-28T07:59:58;9.10;99.90
9450;DHT22;4763;48.370;10.874;2022-09-28T08:02:28;9.20;99.90
9450;DHT22;4763;48.370;10.874;2022-09-28T08:04:56;9.20;99.90
9450;DHT22;4763;48.370;10.874;2022-09-28T08:07:24;9.20;99.90
9450;DHT22;4763;48.370;10.874;2022-09-28T08:09:51;9.30;99.90
9450;DHT22;4763;48.370;10.874;2022-09-28T08:12:18;9.20;99.90
9450;DHT22;4763;48.370;10.874;2022-09-28T08:14:45;9.20;99.90
9450;DHT22;4763;48.370;10.874;2022-09-28T08:17:12;9.20;99.90
9450;DHT22;4763;48.370;10.874;2022-09-28T08:19:41;9.10;99.90
9450;DHT22;4763;48.370;10.874;2022-09-28T08:22:26;9.10;99.90
9450;DHT22;4763;48.370;10.874;2022-09-28T08:24:57;9.10;99.90
9450;DHT22;4763;48.370;10.874;2022-09-28T08:27:23;9.10;99.90
9450;DHT22;4763;48.370;10.874;2022-09-28T08:29:50;9.10;99.90
9450;DHT22;4763;48.370;10.874;2022-09-28T08:32:17;9.10;99.90
9450;DHT22;4763;48.370;10.874;2022-09-28T08:34:45;9.10;99.90
9450;DHT22;4763;48.370;10.874;2022-09-28T08:37:12;9.10;99.90
9450;DHT22;4763;48.370;10.874;2022-09-28T08:39:39;9.20;99.90
9450;DHT22;4763;48.370;10.874;2022-09-28T08:42:16;9.20;99.90
9450;DHT22;4763;48.370;10.874;2022-09-28T08:44:49;9.30;99.90
9450;DHT22;4763;48.370;10.874;2022-09-28T08:47:22;9.40;99.90
9450;DHT22;4763;48.370;10.874;2022-09-28T08:50:18;9.40;99.90
9450;DHT22;4763;48.370;10.874;2022-09-28T08:52:50;9.50;99.90
9450;DHT22;4763;48.370;10.874;2022-09-28T08:55:23;9.70;99.90
9450;DHT22;4763;48.370;10.874;2022-09-28T08:57:56;9.70;99.90
9450;DHT22;4763;48.370;10.874;2022-09-28T09:00:32;9.80;99.90
9450;DHT22;4763;48.370;10.874;2022-09-28T09:03:04;10.00;99.90
9450;DHT22;4763;48.370;10.874;2022-09-28T09:05:46;10.10;99.90
9450;DHT22;4763;48.370;10.874;2022-09-28T09:08:26;10.00;99.90
9450;DHT22;4763;48.370;10.874;2022-09-28T09:11:01;10.10;99.90
9450;DHT22;4763;48.370;10.874;2022-09-28T09:13:54;10.20;99.90
9450;DHT22;4763;48.370;10.874;2022-09-28T09:16:37;10.20;99.90
9450;DHT22;4763;48.370;10.874;2022-09-28T09:19:14;10.20;99.90
9450;DHT22;4763;48.370;10.874;2022-09-28T09:21:47;10.40;99.90
9450;DHT22;4763;48.370;10.874;2022-09-28T09:24:25;10.40;99.90
9450;DHT22;4763;48.370;10.874;2022-09-28T09:27:03;10.50;99.90
9450;DHT22;4763;48.370;10.874;2022-09-28T09:29:48;10.60;99.90
9450;DHT22;4763;48.370;10.874;2022-09-28T09:32:33;10.70;99.90
9450;DHT22;4763;48.370;10.874;2022-09-28T09:35:20;10.80;99.90
9450;DHT22;4763;48.370;10.874;2022-09-28T09:38:10;10.90;99.90
9450;DHT22;4763;48.370;10.874;2022-09-28T09:40:56;10.90;99.90
9450;DHT22;4763;48.370;10.874;2022-09-28T09:43:38;10.90;99.90
9450;DHT22;4763;48.370;10.874;2022-09-28T09:46:14;11.00;99.90
9450;DHT22;4763;48.370;10.874;2022-09-28T09:48:49;11.00;99.90
9450;DHT22;4763;48.370;10.874;2022-09-28T09:51:23;11.00;99.90
9450;DHT22;4763;48.370;10.874;2022-09-28T09:53:56;11.10;99.90
9450;DHT22;4763;48.370;10.874;2022-09-28T09:56:31;10.90;99.90
9450;DHT22;4763;48.370;10.874;2022-09-28T09:59:05;11.00;99.90
9450;DHT22;4763;48.370;10.874;2022-09-28T10:01:36;10.90;99.90
9450;DHT22;4763;48.370;10.874;2022-09-28T10:04:06;10.90;99.90
9450;DHT22;4763;48.370;10.874;2022-09-28T10:06:38;10.90;99.90
9450;DHT22;4763;48.370;10.874;2022-09-28T10:09:13;11.00;99.90
9450;DHT22;4763;48.370;10.874;2022-09-28T10:11:44;11.10;99.90
9450;DHT22;4763;48.370;10.874;2022-09-28T10:14:15;11.10;99.90
9450;DHT22;4763;48.370;10.874;2022-09-28T10:16:45;11.20;99.90
9450;DHT22;4763;48.370;10.874;2022-09-28T10:19:14;11.10;99.90
9450;DHT22;4763;48.370;10.874;2022-09-28T10:21:42;11.20;99.90
9450;DHT22;4763;48.370;10.874;2022-09-28T10:24:16;11.30;99.90
9450;DHT22;4763;48.370;10.874;2022-09-28T10:26:47;11.20;99.90
9450;DHT22;4763;48.370;10.874;2022-09-28T10:29:19;11.10;99.90
9450;DHT22;4763;48.370;10.874;2022-09-28T10:31:48;11.20;99.90
9450;DHT22;4763;48.370;10.874;2022-09-28T10:34:17;11.20;99.90
9450;DHT22;4763;48.370;10.874;2022-09-28T10:36:51;11.20;99.90
9450;DHT22;4763;48.370;10.874;2022-09-28T10:39:32;11.10;99.90
9450;DHT22;4763;48.370;10.874;2022-09-28T10:42:04;11.20;99.90
9450;DHT22;4763;48.370;10.874;2022-09-28T10:44:33;11.20;99.90
9450;DHT22;4763;48.370;10.874;2022-09-28T10:47:02;11.20;99.90
9450;DHT22;4763;48.370;10.874;2022-09-28T10:49:37;11.10;99.90
9450;DHT22;4763;48.370;10.874;2022-09-28T10:52:06;11.10;99.90
9450;DHT22;4763;48.370;10.874;2022-09-28T10:54:53;11.00;99.90
9450;DHT22;4763;48.370;10.874;2022-09-28T10:57:26;11.00;99.90
9450;DHT22;4763;48.370;10.874;2022-09-28T10:59:53;11.00;99.90
9450;DHT22;4763;48.370;10.874;2022-09-28T11:02:23;11.10;99.90
9450;DHT22;4763;48.370;10.874;2022-09-28T11:04:53;11.10;99.90
9450;DHT22;4763;48.370;10.874;2022-09-28T11:07:22;11.00;99.90
9450;DHT22;4763;48.370;10.874;2022-09-28T11:09:50;11.00;99.90
9450;DHT22;4763;48.370;10.874;2022-09-28T11:12:21;11.00;99.90
9450;DHT22;4763;48.370;10.874;2022-09-28T11:14:55;11.00;99.90
9450;DHT22;4763;48.370;10.874;2022-09-28T11:17:28;11.00;99.90
9450;DHT22;4763;48.370;10.874;2022-09-28T11:19:56;11.00;99.90
9450;DHT22;4763;48.370;10.874;2022-09-28T11:22:26;11.10;99.90
9450;DHT22;4763;48.370;10.874;2022-09-28T11:25:19;11.10;99.90
9450;DHT22;4763;48.370;10.874;2022-09-28T11:27:58;11.20;99.90
9450;DHT22;4763;48.370;10.874;2022-09-28T11:30:27;11.30;99.90
9450;DHT22;4763;48.370;10.874;2022-09-28T11:32:59;11.20;99.90
9450;DHT22;4763;48.370;10.874;2022-09-28T11:35:33;11.20;99.90
9450;DHT22;4763;48.370;10.874;2022-09-28T11:38:19;11.20;99.90
9450;DHT22;4763;48.370;10.874;2022-09-28T11:40:59;11.20;99.90
9450;DHT22;4763;48.370;10.874;2022-09-28T11:43:44;11.20;99.90
9450;DHT22;4763;48.370;10.874;2022-09-28T11:46:21;11.20;99.90
9450;DHT22;4763;48.370;10.874;2022-09-28T11:48:54;11.20;99.90
9450;DHT22;4763;48.370;10.874;2022-09-28T11:51:25;11.20;99.90
9450;DHT22;4763;48.370;10.874;2022-09-28T11:53:55;11.20;99.90
9450;DHT22;4763;48.370;10.874;2022-09-28T11:56:31;11.20;99.90
9450;DHT22;4763;48.370;10.874;2022-09-28T11:59:05;11.20;99.90
9450;DHT22;4763;48.370;10.874;2022-09-28T12:01:41;11.10;99.90
9450;DHT22;4763;48.370;10.874;2022-09-28T12:04:12;11.10;99.90
9450;DHT22;4763;48.370;10.874;2022-09-28T12:06:46;11.10;99.90
9450;DHT22;4763;48.370;10.874;2022-09-28T12:09:19;11.20;99.90
9450;DHT22;4763;48.370;10.874;2022-09-28T12:11:51;11.20;99.90
9450;DHT22;4763;48.370;10.874;2022-09-28T12:14:25;11.20;99.90
9450;DHT22;4763;48.370;10.874;2022-09-28T12:16:56;11.20;99.90
9450;DHT22;4763;48.370;10.874;2022-09-28T12:19:29;11.20;99.90
9450;DHT22;4763;48.370;10.874;2022-09-28T12:22:01;11.10;99.90
9450;DHT22;4763;48.370;10.874;2022-09-28T12:24:32;11.10;99.90
9450;DHT22;4763;48.370;10.874;2022-09-28T12:27:04;11.00;99.90
9450;DHT22;4763;48.370;10.874;2022-09-28T12:29:38;10.90;99.90
9450;DHT22;4763;48.370;10.874;2022-09-28T12:32:11;10.80;99.90
9450;DHT22;4763;48.370;10.874;2022-09-28T12:34:40;10.90;99.90
9450;DHT22;4763;48.370;10.874;2022-09-28T12:37:18;10.80;99.90
9450;DHT22;4763;48.370;10.874;2022-09-28T12:40:01;10.80;99.90
9450;DHT22;4763;48.370;10.874;2022-09-28T12:42:49;10.80;99.90
9450;DHT22;4763;48.370;10.874;2022-09-28T12:45:42;10.80;99.90
9450;DHT22;4763;48.370;10.874;2022-09-28T12:48:35;10.80;99.90
9450;DHT22;4763;48.370;10.874;2022-09-28T12:51:11;10.80;99.90
9450;DHT22;4763;48.370;10.874;2022-09-28T12:53:56;10.80;99.90
9450;DHT22;4763;48.370;10.874;2022-09-28T12:56:36;10.70;99.90
9450;DHT22;4763;48.370;10.874;2022-09-28T12:59:14;10.70;99.90
9450;DHT22;4763;48.370;10.874;2022-09-28T13:02:02;10.70;99.90
9450;DHT22;4763;48.370;10.874;2022-09-28T13:04:48;10.80;99.90
9450;DHT22;4763;48.370;10.874;2022-09-28T13:07:24;10.70;99.90
9450;DHT22;4763;48.370;10.874;2022-09-28T13:10:04;10.80;99.90
9450;DHT22;4763;48.370;10.874;2022-09-28T13:12:51;10.80;99.90
9450;DHT22;4763;48.370;10.874;2022-09-28T13:15:33;10.80;99.90
9450;DHT22;4763;48.370;10.874;2022-09-28T13:18:09;10.90;99.90
9450;DHT22;4763;48.370;10.874;2022-09-28T13:20:45;11.00;99.90
9450;DHT22;4763;48.370;10.874;2022-09-28T13:23:18;11.00;99.90
9450;DHT22;4763;48.370;10.874;2022-09-28T13:25:51;10.90;99.90
9450;DHT22;4763;48.370;10.874;2022-09-28T13:28:21;10.90;99.90
9450;DHT22;4763;48.370;10.874;2022-09-28T13:30:49;10.90;99.90
9450;DHT22;4763;48.370;10.874;2022-09-28T13:33:23;10.90;99.90
9450;DHT22;4763;48.370;10.874;2022-09-28T13:35:52;10.90;99.90
9450;DHT22;4763;48.370;10.874;2022-09-28T13:38:44;10.90;99.90
9450;DHT22;4763;48.370;10.874;2022-09-28T13:41:25;10.90;99.90
9450;DHT22;4763;48.370;10.874;2022-09-28T13:47:20;10.80;99.90
9450;DHT22;4763;48.370;10.874;2022-09-28T13:50:02;10.90;99.90
9450;DHT22;4763;48.370;10.874;2022-09-28T13:52:44;10.90;99.90
9450;DHT22;4763;48.370;10.874;2022-09-28T13:55:23;11.00;99.90
9450;DHT22;4763;48.370;10.874;2022-09-28T13:57:54;10.90;99.90
9450;DHT22;4763;48.370;10.874;2022-09-28T14:00:26;10.90;99.90
9450;DHT22;4763;48.370;10.874;2022-09-28T14:02:57;10.80;99.90
9450;DHT22;4763;48.370;10.874;2022-09-28T14:06:06;10.80;99.90
9450;DHT22;4763;48.370;10.874;2022-09-28T14:08:37;10.90;99.90
9450;DHT22;4763;48.370;10.874;2022-09-28T14:14:25;10.80;99.90
9450;DHT22;4763;48.370;10.874;2022-09-28T14:19:48;10.70;99.90
9450;DHT22;4763;48.370;10.874;2022-09-28T14:22:23;10.70;99.90
9450;DHT22;4763;48.370;10.874;2022-09-28T14:25:02;10.60;99.90
9450;DHT22;4763;48.370;10.874;2022-09-28T14:27:42;10.60;99.90
9450;DHT22;4763;48.370;10.874;2022-09-28T14:30:19;10.60;99.90
9450;DHT22;4763;48.370;10.874;2022-09-28T14:32:52;10.70;99.90
9450;DHT22;4763;48.370;10.874;2022-09-28T14:35:28;10.50;99.90
9450;DHT22;4763;48.370;10.874;2022-09-28T14:38:02;10.60;99.90
9450;DHT22;4763;48.370;10.874;2022-09-28T14:40:58;10.50;99.90
9450;DHT22;4763;48.370;10.874;2022-09-28T14:43:36;10.50;99.90
9450;DHT22;4763;48.370;10.874;2022-09-28T14:46:30;10.40;99.90
9450;DHT22;4763;48.370;10.874;2022-09-28T14:49:00;10.40;99.90
9450;DHT22;4763;48.370;10.874;2022-09-28T14:51:59;10.30;99.90
9450;DHT22;4763;48.370;10.874;2022-09-28T14:54:40;10.30;99.90
9450;DHT22;4763;48.370;10.874;2022-09-28T14:57:16;10.40;99.90
9450;DHT22;4763;48.370;10.874;2022-09-28T14:59:45;10.30;99.90
9450;DHT22;4763;48.370;10.874;2022-09-28T15:02:26;10.20;99.90
9450;DHT22;4763;48.370;10.874;2022-09-28T15:05:01;10.20;99.90
9450;DHT22;4763;48.370;10.874;2022-09-28T15:07:42;10.10;99.90
9450;DHT22;4763;48.370;10.874;2022-09-28T15:10:21;10.10;99.90
9450;DHT22;4763;48.370;10.874;2022-09-28T15:13:26;10.10;99.90
9450;DHT22;4763;48.370;10.874;2022-09-28T15:15:55;10.00;99.90
9450;DHT22;4763;48.370;10.874;2022-09-28T15:18:50;10.10;99.90
9450;DHT22;4763;48.370;10.874;2022-09-28T15:21:20;10.00;99.90
9450;DHT22;4763;48.370;10.874;2022-09-28T15:23:48;10.00;99.90
9450;DHT22;4763;48.370;10.874;2022-09-28T15:26:25;9.90;99.90
9450;DHT22;4763;48.370;10.874;2022-09-28T15:28:54;9.80;99.90
9450;DHT22;4763;48.370;10.874;2022-09-28T15:31:22;9.80;99.90
9450;DHT22;4763;48.370;10.874;2022-09-28T15:33:51;9.80;99.90
9450;DHT22;4763;48.370;10.874;2022-09-28T15:36:38;9.70;99.90
9450;DHT22;4763;48.370;10.874;2022-09-28T15:39:11;9.70;99.90
9450;DHT22;4763;48.370;10.874;2022-09-28T15:41:42;9.60;99.90
9450;DHT22;4763;48.370;10.874;2022-09-28T15:44:24;9.60;99.90
9450;DHT22;4763;48.370;10.874;2022-09-28T15:47:07;9.60;99.90
9450;DHT22;4763;48.370;10.874;2022-09-28T15:49:38;9.60;99.90
9450;DHT22;4763;48.370;10.874;2022-09-28T15:52:19;9.60;99.90
9450;DHT22;4763;48.370;10.874;2022-09-28T15:54:46;9.40;99.90
9450;DHT22;4763;48.370;10.874;2022-09-28T15:57:31;9.50;99.90
9450;DHT22;4763;48.370;10.874;2022-09-28T15:59:59;9.40;99.90
9450;DHT22;4763;48.370;10.874;2022-09-28T16:02:26;9.40;99.90
9450;DHT22;4763;48.370;10.874;2022-09-28T16:04:54;9.40;99.90
9450;DHT22;4763;48.370;10.874;2022-09-28T16:07:29;9.40;99.90
9450;DHT22;4763;48.370;10.874;2022-09-28T16:10:00;9.40;99.90
9450;DHT22;4763;48.370;10.874;2022-09-28T16:12:39;9.40;99.90
9450;DHT22;4763;48.370;10.874;2022-09-28T16:15:13;9.30;99.90
9450;DHT22;4763;48.370;10.874;2022-09-28T16:17:49;9.20;99.90
9450;DHT22;4763;48.370;10.874;2022-09-28T16:20:27;9.30;99.90
9450;DHT22;4763;48.370;10.874;2022-09-28T16:22:55;9.30;99.90
9450;DHT22;4763;48.370;10.874;2022-09-28T16:25:25;9.30;99.90
9450;DHT22;4763;48.370;10.874;2022-09-28T16:27:55;9.30;99.90
9450;DHT22;4763;48.370;10.874;2022-09-28T16:30:24;9.20;99.90
9450;DHT22;4763;48.370;10.874;2022-09-28T16:32:55;9.10;99.90
9450;DHT22;4763;48.370;10.874;2022-09-28T16:35:28;9.10;99.90
9450;DHT22;4763;48.370;10.874;2022-09-28T16:38:07;9.10;99.90
9450;DHT22;4763;48.370;10.874;2022-09-28T16:40:40;9.00;99.90
9450;DHT22;4763;48.370;10.874;2022-09-28T16:43:17;9.10;99.90
9450;DHT22;4763;48.370;10.874;2022-09-28T16:45:44;9.10;99.90
9450;DHT22;4763;48.370;10.874;2022-09-28T16:48:13;9.00;99.90
9450;DHT22;4763;48.370;10.874;2022-09-28T16:50:45;9.00;99.90